createdAt,value
2023-08-17T00:04:59.265Z,6.53
2023-08-17T00:10:02.379Z,3.85
2023-08-17T00:15:06.157Z,6.35
2023-08-17T00:20:11.692Z,5.63
2023-08-17T00:25:14.836Z,10.32
2023-08-17T00:30:17.638Z,5.13
2023-08-17T00:35:22.050Z,6.35
2023-08-17T00:40:25.829Z,3.40
2023-08-17T00:45:30.635Z,5.43
2023-08-17T00:50:34.875Z,7.75
2023-08-17T00:55:38.438Z,8.30
2023-08-17T01:00:42.317Z,3.60
2023-08-17T01:05:47.389Z,6.47
2023-08-17T01:10:59.383Z,4.70
2023-08-17T01:16:07.612Z,5.18
2023-08-17T01:21:15.863Z,3.10
2023-08-17T01:26:19.988Z,5.28
2023-08-17T01:31:32.644Z,5.07
2023-08-17T01:36:39.760Z,5.80
2023-08-17T01:46:48.471Z,5.80
2023-08-17T01:51:51.335Z,6.00
2023-08-17T01:56:55.436Z,6.82
2023-08-17T02:01:58.326Z,3.95
2023-08-17T02:07:01.850Z,8.05
2023-08-17T02:12:07.508Z,3.78
2023-08-17T02:17:10.338Z,4.93
2023-08-17T02:22:13.241Z,6.15
2023-08-17T02:27:17.364Z,6.68
2023-08-17T02:32:20.204Z,5.50
2023-08-17T02:37:24.206Z,3.97
2023-08-17T02:42:28.608Z,4.03
2023-08-17T02:47:31.465Z,6.00
2023-08-17T02:52:34.373Z,6.60
2023-08-17T02:57:38.484Z,3.35
2023-08-17T03:02:41.364Z,3.55
2023-08-17T03:07:44.170Z,3.38
2023-08-17T03:12:48.330Z,5.43
2023-08-17T03:17:51.650Z,4.00
2023-08-17T03:22:54.477Z,7.07
2023-08-17T03:27:58.725Z,5.80
2023-08-17T03:33:01.807Z,5.53
2023-08-17T03:38:07.154Z,3.28
2023-08-17T03:43:11.397Z,3.80
2023-08-17T03:48:14.521Z,5.95
2023-08-17T03:53:17.323Z,4.22
2023-08-17T03:58:21.487Z,3.25
2023-08-17T04:03:24.393Z,3.92
2023-08-17T04:08:27.229Z,5.18
2023-08-17T04:13:31.516Z,5.10
2023-08-17T04:18:34.321Z,4.40
2023-08-17T04:23:37.184Z,5.68
2023-08-17T04:28:41.313Z,5.45
2023-08-17T04:33:44.275Z,4.80
2023-08-17T04:38:47.569Z,3.88
2023-08-17T04:43:51.842Z,3.05
2023-08-17T04:48:54.801Z,6.00
2023-08-17T04:53:57.914Z,5.63
2023-08-17T04:59:03.053Z,4.57
2023-08-17T05:04:06.786Z,3.97
2023-08-17T05:09:09.700Z,5.13
2023-08-17T05:14:14.108Z,5.13
2023-08-17T05:19:16.986Z,5.68
2023-08-17T05:24:21.546Z,8.43
2023-08-17T05:29:25.862Z,7.97
2023-08-17T05:34:28.660Z,4.03
2023-08-17T05:39:33.553Z,6.75
2023-08-17T05:44:39.277Z,7.78
2023-08-17T05:49:42.121Z,8.02
2023-08-17T05:54:44.919Z,6.95
2023-08-17T05:59:49.045Z,6.80
2023-08-17T06:04:51.964Z,7.97
2023-08-17T06:09:54.730Z,7.55
2023-08-17T06:14:58.948Z,9.30
2023-08-17T06:20:01.853Z,9.35
2023-08-17T06:25:06.978Z,11.80
2023-08-17T06:30:13.032Z,11.13
2023-08-17T06:35:15.904Z,10.90
2023-08-17T06:40:18.683Z,11.57
2023-08-17T06:45:23.787Z,11.10
2023-08-17T06:50:27.904Z,13.45
2023-08-17T06:55:30.928Z,12.88
2023-08-17T07:00:36.409Z,12.45
2023-08-17T07:05:39.241Z,11.55
2023-08-17T07:10:42.005Z,11.00
2023-08-17T07:15:46.137Z,9.52
2023-08-17T07:20:50.361Z,8.80
2023-08-17T07:25:53.160Z,8.30
2023-08-17T07:30:57.266Z,8.30
2023-08-17T07:36:00.284Z,12.38
2023-08-17T07:41:03.207Z,8.65
2023-08-17T07:46:07.463Z,7.30
2023-08-17T07:51:10.371Z,6.45
2023-08-17T07:56:13.200Z,5.40
2023-08-17T08:01:17.341Z,6.90
2023-08-17T08:06:21.571Z,4.45
2023-08-17T08:11:24.493Z,6.65
2023-08-17T08:16:30.567Z,9.07
2023-08-17T08:21:33.391Z,8.88
2023-08-17T08:26:36.199Z,6.65
2023-08-17T08:31:40.320Z,7.75
2023-08-17T08:36:43.148Z,6.70
2023-08-17T08:41:45.973Z,6.75
2023-08-17T08:46:50.868Z,7.93
2023-08-17T08:51:54.063Z,4.82
2023-08-17T08:57:01.345Z,4.88
2023-08-17T09:02:05.897Z,6.03
2023-08-17T09:07:09.760Z,4.80
2023-08-17T09:12:12.869Z,4.25
2023-08-17T09:17:25.182Z,4.43
2023-08-17T09:22:39.917Z,6.40
2023-08-17T09:27:42.878Z,4.43
2023-08-17T09:32:50.617Z,4.65
2023-08-17T09:37:53.986Z,5.28
2023-08-17T09:42:56.820Z,5.45
2023-08-17T09:48:03.692Z,6.10
2023-08-17T09:53:07.204Z,6.38
2023-08-17T09:58:10.186Z,5.63
2023-08-17T10:03:16.314Z,3.67
2023-08-17T10:08:22.633Z,3.05
2023-08-17T10:13:33.613Z,3.67
2023-08-17T10:18:44.649Z,4.15
2023-08-17T10:23:48.220Z,3.58
2023-08-17T10:28:52.349Z,3.20
2023-08-17T10:33:57.167Z,3.10
2023-08-17T10:39:28.578Z,5.13
2023-08-17T10:44:41.306Z,4.20
2023-08-17T10:49:45.469Z,4.82
2023-08-17T10:54:49.922Z,3.30
2023-08-17T11:00:11.902Z,3.72
2023-08-17T11:05:18.345Z,4.10
2023-08-17T11:10:31.530Z,4.13
2023-08-17T11:15:43.583Z,4.38
2023-08-17T11:20:49.696Z,4.43
2023-08-17T11:25:54.686Z,3.58
2023-08-17T11:31:01.550Z,7.25
2023-08-17T11:36:07.585Z,4.25
2023-08-17T11:41:11.151Z,4.85
2023-08-17T11:46:22.767Z,4.32
2023-08-17T11:51:32.533Z,4.65
2023-08-17T11:56:35.653Z,7.30
2023-08-17T12:01:38.553Z,5.25
2023-08-17T12:06:46.644Z,4.10
2023-08-17T12:16:52.042Z,5.35
2023-08-17T12:21:56.212Z,6.10
2023-08-17T12:26:59.888Z,7.72
2023-08-17T12:32:03.613Z,6.53
2023-08-17T12:37:10.066Z,6.90
2023-08-17T12:42:12.851Z,8.27
2023-08-17T12:47:15.637Z,7.47
2023-08-17T12:52:19.772Z,4.88
2023-08-17T12:57:22.660Z,3.88
2023-08-17T13:02:26.234Z,4.57
2023-08-17T13:07:30.656Z,4.90
2023-08-17T13:12:33.438Z,6.88
2023-08-17T13:17:36.338Z,4.32
2023-08-17T13:22:40.462Z,4.10
2023-08-17T13:27:43.343Z,3.92
2023-08-17T13:32:47.007Z,3.55
2023-08-17T13:37:54.956Z,2.75
2023-08-17T13:42:58.950Z,1.95
2023-08-17T13:48:01.808Z,1.48
2023-08-17T13:53:06.254Z,1.88
2023-08-17T13:58:11.185Z,3.67
2023-08-17T14:03:14.211Z,2.78
2023-08-17T14:08:18.480Z,1.88
2023-08-17T14:13:21.235Z,2.85
2023-08-17T14:18:24.261Z,1.98
2023-08-17T14:23:28.446Z,3.10
2023-08-17T14:28:31.335Z,3.50
2023-08-17T14:33:34.180Z,2.95
2023-08-17T14:38:38.397Z,2.58
2023-08-17T14:43:41.413Z,3.10
2023-08-17T14:48:44.272Z,2.17
2023-08-17T14:53:48.427Z,4.63
2023-08-17T14:58:51.299Z,2.38
2023-08-17T15:03:54.107Z,2.83
2023-08-17T15:08:58.276Z,2.45
2023-08-17T15:14:01.043Z,2.55
2023-08-17T15:19:04.351Z,2.97
2023-08-17T15:24:08.836Z,2.60
2023-08-17T15:29:11.593Z,2.38
2023-08-17T15:34:14.402Z,4.28
2023-08-17T15:39:18.666Z,3.83
2023-08-17T15:44:21.519Z,3.47
2023-08-17T15:49:24.320Z,5.63
2023-08-17T15:54:35.942Z,3.67
2023-08-17T15:59:40.252Z,3.15
2023-08-17T16:04:43.215Z,3.25
2023-08-17T16:09:47.418Z,4.70
2023-08-17T16:14:50.202Z,5.95
2023-08-17T16:19:52.979Z,7.50
2023-08-17T16:24:57.143Z,5.75
2023-08-17T16:29:59.935Z,3.67
2023-08-17T16:35:02.767Z,5.63
2023-08-17T16:40:09.775Z,3.78
2023-08-17T16:45:15.989Z,4.20
2023-08-17T16:50:19.010Z,5.00
2023-08-17T16:55:23.262Z,2.92
2023-08-17T17:00:26.290Z,4.28
2023-08-17T17:05:29.101Z,3.95
2023-08-17T17:10:33.347Z,3.67
2023-08-17T17:15:36.209Z,2.80
2023-08-17T17:20:39.046Z,3.53
2023-08-17T17:25:43.232Z,2.63
2023-08-17T17:30:46.450Z,4.53
2023-08-17T17:35:49.276Z,4.30
2023-08-17T17:40:53.596Z,7.20
2023-08-17T17:45:56.369Z,6.15
2023-08-17T17:50:59.130Z,3.88
2023-08-17T17:56:03.350Z,5.43
2023-08-17T18:01:06.569Z,4.63
2023-08-17T18:06:09.539Z,3.15
2023-08-17T18:11:13.711Z,3.60
2023-08-17T18:16:16.520Z,3.42
2023-08-17T18:21:19.347Z,6.07
2023-08-17T18:26:23.547Z,5.00
2023-08-17T18:31:26.519Z,5.30
2023-08-17T18:36:29.310Z,4.65
2023-08-17T18:41:33.607Z,3.75
2023-08-17T18:46:37.422Z,4.78
2023-08-17T18:51:41.800Z,3.67
2023-08-17T18:56:45.949Z,7.07
2023-08-17T19:01:48.790Z,5.32
2023-08-17T19:06:51.706Z,5.55
2023-08-17T19:11:55.881Z,5.05
2023-08-17T19:17:00.063Z,10.13
2023-08-17T19:22:02.876Z,5.50
2023-08-17T19:27:07.257Z,4.63
2023-08-17T19:32:10.101Z,4.30
2023-08-17T19:37:12.919Z,5.95
2023-08-17T19:42:17.254Z,4.13
2023-08-17T19:47:21.265Z,9.35
2023-08-17T19:52:24.164Z,4.15
2023-08-17T19:57:28.649Z,4.63
2023-08-17T20:02:32.839Z,6.50
2023-08-17T20:07:35.745Z,4.45
2023-08-17T20:12:39.872Z,4.68
2023-08-17T20:17:42.676Z,4.88
2023-08-17T20:22:45.518Z,5.55
2023-08-17T20:27:50.335Z,3.40
2023-08-17T20:32:53.225Z,5.13
2023-08-17T20:37:56.051Z,4.60
2023-08-17T20:43:00.225Z,3.58
2023-08-17T20:48:03.049Z,5.13
2023-08-17T20:53:06.753Z,4.60
2023-08-17T20:58:11.092Z,2.83
2023-08-17T21:03:13.986Z,3.42
2023-08-17T21:08:16.935Z,3.45
2023-08-17T21:13:21.503Z,5.80
2023-08-17T21:18:24.274Z,3.42
2023-08-17T21:23:27.539Z,3.00
2023-08-17T21:28:31.648Z,2.65
2023-08-17T21:33:34.618Z,4.68
2023-08-17T21:38:37.414Z,4.05
2023-08-17T21:43:41.536Z,1.75
2023-08-17T21:48:44.342Z,3.10
2023-08-17T21:53:47.373Z,2.97
2023-08-17T21:58:51.486Z,2.70
2023-08-17T22:03:54.303Z,3.50
2023-08-17T22:08:57.124Z,2.63
2023-08-17T22:14:01.259Z,1.50
2023-08-17T22:19:04.126Z,2.85
2023-08-17T22:24:07.743Z,4.72
2023-08-17T22:29:12.460Z,3.53
2023-08-17T22:34:15.287Z,2.05
2023-08-17T22:39:18.067Z,5.13
2023-08-17T22:44:22.199Z,3.30
2023-08-17T22:49:24.968Z,5.57
2023-08-17T22:54:27.769Z,2.20
2023-08-17T22:59:31.960Z,3.80
2023-08-17T23:04:34.789Z,3.70
2023-08-17T23:09:37.580Z,6.88
2023-08-17T23:14:41.906Z,7.55
2023-08-17T23:19:44.700Z,4.00
2023-08-17T23:24:47.520Z,3.28
2023-08-17T23:29:51.728Z,4.70
2023-08-17T23:34:54.609Z,4.05
2023-08-17T23:39:57.391Z,4.40
2023-08-17T23:45:01.542Z,7.38
2023-08-17T23:50:06.022Z,4.22
2023-08-17T23:55:08.995Z,5.65
